Elisalex Schulte — 9V9154 — position and weather

sailwx.info

Track history (hours):
 
Tides and Currents Weather Stations Pressure Air Temp Water Temp Dewpoint Dewpoint Depression Visibility Wind Speed Wind Dir Waves Ship Positions

Elisalex Schulte

Last reported at 2016-Apr-27 04:26 UTC. Time now 2016-Apr-29 13:56 UTC.
Position N 55°17' E 011°04'.

Length 144 m; draft 6.6 m.

Type: Tanker. MMSI: 563052000.

Date/timePositionNaut miles runAvg speedWind from/ knotsBaromVisibWave heightAir tempDewpointWater temp
2016-Apr-27 04:26N 55°17' E 011°04'1112.9
2016-Apr-27 03:33N 55°05' E 011°03'1313.4
2016-Apr-27 02:33N 54°53' E 010°54'1313.0
2016-Apr-27 01:34N 54°40' E 010°58'6 6.2
2016-Apr-27 00:33N 54°35' E 010°53'1313.2
2016-Apr-26 23:33N 54°33' E 010°31'1111.0
2016-Apr-26 22:33N 54°27' E 010°15'6 6.3
2016-Apr-26 21:33N 54°22' E 010°08'3 2.7
2016-Apr-26 20:33N 54°22' E 010°04'7 6.9
2016-Apr-26 19:33N 54°22' E 009°52'7 7.4
2016-Apr-26 18:33N 54°18' E 009°41'14 6.5
2016-Apr-26 16:20N 54°09' E 009°22'5 6.4
2016-Apr-26 15:33N 54°04' E 009°19'7 7.2
2016-Apr-26 14:34N 53°58' E 009°15'5 5.3
2016-Apr-26 13:33N 53°54' E 009°09'2 2.1
2016-Apr-26 12:33N 53°53' E 009°05'1 0.6
2016-Apr-26 11:33N 53°52' E 009°05'1110.8
2016-Apr-26 10:33N 53°50' E 008°47'1110.5
2016-Apr-26 09:33N 53°58' E 008°34'7 7.1
2016-Apr-26 08:33N 53°60' E 008°23'1414.4
2016-Apr-26 07:33N 53°52' E 008°44'1414.2
2016-Apr-26 06:33N 53°53' E 009°08'1 0.8
2016-Apr-26 05:33N 53°54' E 009°09'1 1.3
2016-Apr-26 04:25N 53°55' E 009°10'0 0.0
2016-Apr-26 03:31N 53°55' E 009°10'0 0.0
2016-Apr-26 02:31N 53°55' E 009°10'0 0.0
2016-Apr-26 01:22N 53°55' E 009°10'0 0.0
2016-Apr-26 00:25N 53°55' E 009°10'0 0.0
2016-Apr-25 23:31N 53°55' E 009°10'0 0.0
2016-Apr-25 22:31N 53°55' E 009°10'0 0.0
2016-Apr-25 21:31N 53°55' E 009°10'0 0.0
2016-Apr-25 20:28N 53°55' E 009°10'0 0.0
2016-Apr-25 19:31N 53°55' E 009°10'0 0.0
2016-Apr-25 18:25N 53°55' E 009°10'0 0.0
2016-Apr-25 17:31N 53°55' E 009°10'0 0.0
2016-Apr-25 16:25N 53°55' E 009°10'0 0.0
2016-Apr-25 15:28N 53°55' E 009°10'0 0.0
2016-Apr-25 14:31N 53°55' E 009°10'0 0.0
2016-Apr-25 13:31N 53°55' E 009°10'0 0.0
2016-Apr-25 12:31N 53°55' E 009°10'0 0.0
2016-Apr-25 11:16N 53°55' E 009°10'0 0.0
2016-Apr-25 10:31N 53°55' E 009°10'0 0.0
2016-Apr-25 09:31N 53°55' E 009°10'0 0.0
2016-Apr-25 08:25N 53°55' E 009°10'0 0.0
2016-Apr-25 07:31N 53°55' E 009°10'0 0.0
2016-Apr-25 06:31N 53°55' E 009°10'0 0.0
2016-Apr-25 05:31N 53°55' E 009°10'0 0.0
2016-Apr-25 04:31N 53°55' E 009°10'0 0.0
2016-Apr-25 03:31N 53°55' E 009°10'0 0.0
2016-Apr-25 02:31N 53°55' E 009°10'0 0.0
2016-Apr-25 01:31N 53°55' E 009°10'0 0.0
2016-Apr-25 00:25N 53°55' E 009°10'0 0.0
2016-Apr-24 23:28N 53°55' E 009°10'0 0.0
2016-Apr-24 22:31N 53°55' E 009°10'0 0.0
2016-Apr-24 21:31N 53°55' E 009°10'0 0.0
2016-Apr-24 20:31N 53°55' E 009°10'0 0.0
2016-Apr-24 19:31N 53°55' E 009°10'0 0.0
2016-Apr-24 18:31N 53°55' E 009°10'0 0.0
2016-Apr-24 17:31N 53°55' E 009°10'0 0.0
2016-Apr-24 16:31N 53°55' E 009°10'0 0.0
2016-Apr-24 15:28N 53°55' E 009°10'0 0.0
2016-Apr-24 14:25N 53°55' E 009°10'0 0.0
2016-Apr-24 13:25N 53°55' E 009°10'0 0.0
2016-Apr-24 12:31N 53°55' E 009°10'0 0.0
2016-Apr-24 11:31N 53°55' E 009°10'0 0.0
2016-Apr-24 10:22N 53°55' E 009°10'0 0.0
2016-Apr-24 09:22N 53°55' E 009°10'0 0.0
2016-Apr-24 08:31N 53°55' E 009°10'0 0.0
2016-Apr-24 07:31N 53°55' E 009°10'0 0.0
2016-Apr-24 06:31N 53°55' E 009°10'0 0.0
2016-Apr-24 05:31N 53°55' E 009°10'0 0.0
2016-Apr-24 04:31N 53°55' E 009°10'0 0.0
2016-Apr-24 03:28N 53°55' E 009°10'0 0.0
2016-Apr-24 02:31N 53°55' E 009°10'0 0.0
2016-Apr-24 01:28N 53°55' E 009°10'0 0.0
2016-Apr-24 00:31N 53°55' E 009°10'0 0.0
2016-Apr-23 23:28N 53°55' E 009°10'0 0.0
2016-Apr-23 22:31N 53°55' E 009°10'0 0.0
2016-Apr-23 21:19N 53°55' E 009°10'0 0.0
2016-Apr-23 20:31N 53°55' E 009°10'0 0.0
2016-Apr-23 19:31N 53°55' E 009°10'0 0.0
2016-Apr-23 18:31N 53°55' E 009°10'0 0.0
2016-Apr-23 17:31N 53°55' E 009°10'0 0.0
2016-Apr-23 16:31N 53°55' E 009°10'0 0.0
2016-Apr-23 15:28N 53°55' E 009°10'0 0.0
2016-Apr-23 14:31N 53°55' E 009°10'0 0.0
2016-Apr-23 13:31N 53°55' E 009°10'0 0.0
2016-Apr-23 12:31N 53°55' E 009°10'0 0.0
2016-Apr-23 11:28N 53°55' E 009°10'0 0.0
2016-Apr-23 10:31N 53°55' E 009°10'0 0.0
2016-Apr-23 09:22N 53°55' E 009°10'0 0.0
2016-Apr-23 08:31N 53°55' E 009°10'0 0.0
2016-Apr-23 07:31N 53°55' E 009°10'0 0.0
2016-Apr-23 06:31N 53°55' E 009°10'0 0.0
2016-Apr-23 05:31N 53°55' E 009°10'0 0.0
2016-Apr-23 04:31N 53°55' E 009°10'0 0.0
2016-Apr-23 03:31N 53°55' E 009°10'0 0.0
2016-Apr-23 02:31N 53°55' E 009°10'0 0.0
2016-Apr-23 01:31N 53°55' E 009°10'0 0.0
2016-Apr-23 00:25N 53°55' E 009°10'0 0.0
2016-Apr-22 23:31N 53°55' E 009°10'0 0.0
2016-Apr-22 22:25N 53°55' E 009°10'0 0.0
2016-Apr-22 21:31N 53°55' E 009°10'0 0.0
2016-Apr-22 20:31N 53°55' E 009°10'0 0.0
2016-Apr-22 19:31N 53°55' E 009°10'0 0.0
2016-Apr-22 18:31N 53°55' E 009°10'0 0.0
2016-Apr-22 17:31N 53°55' E 009°10'0 0.0
2016-Apr-22 16:31N 53°55' E 009°10'0 0.0
2016-Apr-22 15:31N 53°55' E 009°10'0 0.0
2016-Apr-22 14:25N 53°55' E 009°10'0 0.0
2016-Apr-22 13:31N 53°55' E 009°10'0 0.0
2016-Apr-22 12:25N 53°55' E 009°10'0 0.0
2016-Apr-22 11:34N 53°55' E 009°10'1 1.0
2016-Apr-22 10:33N 53°54' E 009°09'1 0.6
2016-Apr-22 09:33N 53°53' E 009°08'2 1.4
2016-Apr-22 08:27N 53°53' E 009°06'0 0.0
2016-Apr-22 07:31N 53°53' E 009°06'1 1.1
2016-Apr-22 06:33N 53°52' E 009°04'7 7.2
2016-Apr-22 05:33N 53°50' E 008°53'7 6.7
2016-Apr-22 04:34N 53°53' E 008°42'8 7.7
2016-Apr-22 03:29N 53°58' E 008°31'8 9.0
2016-Apr-22 02:32N 53°60' E 008°17'9 9.5
2016-Apr-22 01:33N 54°00' E 008°01'1212.1
2016-Apr-22 00:33N 54°06' E 007°43'1212.2
2016-Apr-21 23:33N 54°09' E 007°23'1313.1
2016-Apr-21 22:33N 54°09' E 007°00'1413.6
2016-Apr-21 21:33N 54°08' E 006°37'1713.6
2016-Apr-21 20:16N 54°07' E 006°08'1013.5
2016-Apr-21 19:33N 54°06' E 005°51'1313.3
2016-Apr-21 18:33N 54°04' E 005°29'1413.1
2016-Apr-21 17:31N 54°02' E 005°06'1212.7
2016-Apr-21 16:33N 54°00' E 004°45'2812.1
2016-Apr-21 14:12N 53°41' E 004°10'1011.6
2016-Apr-21 13:23N 53°35' E 003°57'911.4
2016-Apr-21 12:33N 53°30' E 003°45'5711.2
2016-Apr-21 07:28N 52°35' E 003°16'1112.1
2016-Apr-21 06:33N 52°24' E 003°14'1210.8
2016-Apr-21 05:29N 52°14' E 003°20'1312.8
2016-Apr-21 04:27N 52°07' E 003°39'1011.3
2016-Apr-21 03:33N 52°03' E 003°54'10 9.9
2016-Apr-21 02:33N 51°58' E 004°08'8 7.9
2016-Apr-21 01:33N 51°54' E 004°19'2 1.9
2016-Apr-21 00:31N 51°54' E 004°22'0 0.0
2016-Apr-20 23:31N 51°54' E 004°22'0 0.0
2016-Apr-20 22:25N 51°54' E 004°22'0 0.0
2016-Apr-20 21:31N 51°54' E 004°22'0 0.0
2016-Apr-20 20:28N 51°54' E 004°22'0 0.0
2016-Apr-20 19:31N 51°54' E 004°22'0 0.0
2016-Apr-20 18:22N 51°54' E 004°22'0 0.0
2016-Apr-20 17:28N 51°54' E 004°22'0 0.0
2016-Apr-20 16:31N 51°54' E 004°22'0 0.0
2016-Apr-20 15:31N 51°54' E 004°22'0 0.0
2016-Apr-20 14:25N 51°54' E 004°22'0 0.0
2016-Apr-20 13:34N 51°54' E 004°22'0 0.0
2016-Apr-20 12:31N 51°54' E 004°22'0 0.0
2016-Apr-20 11:28N 51°54' E 004°22'0 0.0
2016-Apr-20 10:04N 51°54' E 004°22'0 0.0
2016-Apr-20 09:27N 51°54' E 004°22'0 0.0
2016-Apr-20 08:34N 51°54' E 004°22'0 0.0
2016-Apr-20 07:31N 51°54' E 004°22'0 0.0
2016-Apr-20 05:31N 51°54' E 004°22'0 0.0
2016-Apr-20 04:31N 51°54' E 004°22'0 0.0
2016-Apr-20 03:30N 51°54' E 004°22'0 0.0
2016-Apr-20 02:30N 51°54' E 004°22'0 0.0
2016-Apr-20 01:33N 51°54' E 004°22'0 0.0
2016-Apr-20 00:25N 51°54' E 004°22'0 0.0
2016-Apr-19 23:30N 51°54' E 004°22'0 0.0
2016-Apr-19 22:33N 51°54' E 004°22'0 0.0
2016-Apr-19 21:31N 51°54' E 004°22'0 0.0
2016-Apr-19 20:33N 51°54' E 004°22'0 0.0
2016-Apr-19 19:27N 51°54' E 004°22'0 0.0
2016-Apr-19 18:33N 51°54' E 004°22'0 0.0
2016-Apr-19 17:33N 51°54' E 004°22'0 0.0
2016-Apr-19 16:30N 51°54' E 004°22'0 0.0
2016-Apr-19 15:24N 51°54' E 004°22'0 0.0
2016-Apr-19 14:27N 51°54' E 004°22'0 0.0
2016-Apr-19 13:30N 51°54' E 004°22'0 0.0
2016-Apr-19 12:27N 51°54' E 004°22'0 0.0
2016-Apr-19 11:25N 51°54' E 004°22'0 0.0
2016-Apr-19 10:18N 51°54' E 004°22'0 0.0
2016-Apr-19 09:30N 51°54' E 004°22'0 0.0
2016-Apr-19 08:33N 51°54' E 004°22'0 0.0
2016-Apr-19 07:33N 51°54' E 004°22'0 0.0
2016-Apr-19 05:30N 51°54' E 004°22'0 0.0
2016-Apr-19 04:33N 51°54' E 004°22'0 0.0
2016-Apr-19 03:33N 51°54' E 004°22'0 0.0
2016-Apr-19 02:33N 51°54' E 004°22'0 0.0
2016-Apr-19 01:33N 51°54' E 004°22'0 0.0
2016-Apr-19 00:30N 51°54' E 004°22'0 0.0
2016-Apr-18 23:33N 51°54' E 004°22'0 0.0
2016-Apr-18 22:33N 51°54' E 004°22'0 0.0
2016-Apr-18 21:30N 51°54' E 004°22'0 0.0
2016-Apr-18 20:30N 51°54' E 004°22'0 0.0
2016-Apr-18 19:30N 51°54' E 004°22'0 0.0
2016-Apr-18 18:27N 51°54' E 004°22'0 0.0
2016-Apr-18 17:27N 51°54' E 004°22'0 0.0
2016-Apr-18 16:27N 51°54' E 004°22'0 0.0
2016-Apr-18 15:33N 51°54' E 004°22'0 0.0
2016-Apr-18 14:30N 51°54' E 004°22'0 0.0
2016-Apr-18 13:33N 51°54' E 004°22'0 0.0
2016-Apr-18 12:30N 51°54' E 004°22'0 0.0
2016-Apr-18 11:30N 51°54' E 004°22'0 0.0
2016-Apr-18 10:30N 51°54' E 004°22'0 0.0
2016-Apr-18 09:33N 51°54' E 004°22'0 0.0
2016-Apr-18 08:30N 51°54' E 004°22'0 0.0
2016-Apr-18 07:30N 51°54' E 004°22'0 0.0
2016-Apr-18 06:24N 51°54' E 004°22'0 0.0
2016-Apr-18 05:27N 51°54' E 004°22'0 0.0
2016-Apr-18 04:33N 51°54' E 004°22'0 0.0
2016-Apr-18 03:30N 51°54' E 004°22'0 0.0
2016-Apr-18 02:33N 51°54' E 004°22'0 0.4
2016-Apr-18 01:33N 51°54' E 004°22'8 8.1
2016-Apr-18 00:33N 51°57' E 004°10'1111.2
2016-Apr-17 23:33N 52°00' E 003°52'9 9.0
2016-Apr-17 22:32N 51°57' E 003°38'2 0.3
2016-Apr-17 17:24N 51°56' E 003°37'  
Track history (hours):
 
Tides and Currents Weather Stations Pressure Air Temp Water Temp Dewpoint Dewpoint Depression Visibility Wind Speed Wind Dir Waves Ship Positions

Elisalex Schulte

Last reported at 2016-Apr-27 04:26 UTC. Time now 2016-Apr-29 13:56 UTC.
Position N 55°17' E 011°04'.

Length 144 m; draft 6.6 m.

Type: Tanker. MMSI: 563052000.

Date/timePositionNaut miles runAvg speedWind from/ knotsBaromVisibWave heightAir tempDewpointWater temp
2016-Apr-27 04:26N 55°17' E 011°04'1112.9
2016-Apr-27 03:33N 55°05' E 011°03'1313.4
2016-Apr-27 02:33N 54°53' E 010°54'1313.0
2016-Apr-27 01:34N 54°40' E 010°58'6 6.2
2016-Apr-27 00:33N 54°35' E 010°53'1313.2
2016-Apr-26 23:33N 54°33' E 010°31'1111.0
2016-Apr-26 22:33N 54°27' E 010°15'6 6.3
2016-Apr-26 21:33N 54°22' E 010°08'3 2.7
2016-Apr-26 20:33N 54°22' E 010°04'7 6.9
2016-Apr-26 19:33N 54°22' E 009°52'7 7.4
2016-Apr-26 18:33N 54°18' E 009°41'14 6.5
2016-Apr-26 16:20N 54°09' E 009°22'5 6.4
2016-Apr-26 15:33N 54°04' E 009°19'7 7.2
2016-Apr-26 14:34N 53°58' E 009°15'5 5.3
2016-Apr-26 13:33N 53°54' E 009°09'2 2.1
2016-Apr-26 12:33N 53°53' E 009°05'1 0.6
2016-Apr-26 11:33N 53°52' E 009°05'1110.8
2016-Apr-26 10:33N 53°50' E 008°47'1110.5
2016-Apr-26 09:33N 53°58' E 008°34'7 7.1
2016-Apr-26 08:33N 53°60' E 008°23'1414.4
2016-Apr-26 07:33N 53°52' E 008°44'1414.2
2016-Apr-26 06:33N 53°53' E 009°08'1 0.8
2016-Apr-26 05:33N 53°54' E 009°09'1 1.3
2016-Apr-26 04:25N 53°55' E 009°10'0 0.0
2016-Apr-26 03:31N 53°55' E 009°10'0 0.0
2016-Apr-26 02:31N 53°55' E 009°10'0 0.0
2016-Apr-26 01:22N 53°55' E 009°10'0 0.0
2016-Apr-26 00:25N 53°55' E 009°10'0 0.0
2016-Apr-25 23:31N 53°55' E 009°10'0 0.0
2016-Apr-25 22:31N 53°55' E 009°10'0 0.0
2016-Apr-25 21:31N 53°55' E 009°10'0 0.0
2016-Apr-25 20:28N 53°55' E 009°10'0 0.0
2016-Apr-25 19:31N 53°55' E 009°10'0 0.0
2016-Apr-25 18:25N 53°55' E 009°10'0 0.0
2016-Apr-25 17:31N 53°55' E 009°10'0 0.0
2016-Apr-25 16:25N 53°55' E 009°10'0 0.0
2016-Apr-25 15:28N 53°55' E 009°10'0 0.0
2016-Apr-25 14:31N 53°55' E 009°10'0 0.0
2016-Apr-25 13:31N 53°55' E 009°10'0 0.0
2016-Apr-25 12:31N 53°55' E 009°10'0 0.0
2016-Apr-25 11:16N 53°55' E 009°10'0 0.0
2016-Apr-25 10:31N 53°55' E 009°10'0 0.0
2016-Apr-25 09:31N 53°55' E 009°10'0 0.0
2016-Apr-25 08:25N 53°55' E 009°10'0 0.0
2016-Apr-25 07:31N 53°55' E 009°10'0 0.0
2016-Apr-25 06:31N 53°55' E 009°10'0 0.0
2016-Apr-25 05:31N 53°55' E 009°10'0 0.0
2016-Apr-25 04:31N 53°55' E 009°10'0 0.0
2016-Apr-25 03:31N 53°55' E 009°10'0 0.0
2016-Apr-25 02:31N 53°55' E 009°10'0 0.0
2016-Apr-25 01:31N 53°55' E 009°10'0 0.0
2016-Apr-25 00:25N 53°55' E 009°10'0 0.0
2016-Apr-24 23:28N 53°55' E 009°10'0 0.0
2016-Apr-24 22:31N 53°55' E 009°10'0 0.0
2016-Apr-24 21:31N 53°55' E 009°10'0 0.0
2016-Apr-24 20:31N 53°55' E 009°10'0 0.0
2016-Apr-24 19:31N 53°55' E 009°10'0 0.0
2016-Apr-24 18:31N 53°55' E 009°10'0 0.0
2016-Apr-24 17:31N 53°55' E 009°10'0 0.0
2016-Apr-24 16:31N 53°55' E 009°10'0 0.0
2016-Apr-24 15:28N 53°55' E 009°10'0 0.0
2016-Apr-24 14:25N 53°55' E 009°10'0 0.0
2016-Apr-24 13:25N 53°55' E 009°10'0 0.0
2016-Apr-24 12:31N 53°55' E 009°10'0 0.0
2016-Apr-24 11:31N 53°55' E 009°10'0 0.0
2016-Apr-24 10:22N 53°55' E 009°10'0 0.0
2016-Apr-24 09:22N 53°55' E 009°10'0 0.0
2016-Apr-24 08:31N 53°55' E 009°10'0 0.0
2016-Apr-24 07:31N 53°55' E 009°10'0 0.0
2016-Apr-24 06:31N 53°55' E 009°10'0 0.0
2016-Apr-24 05:31N 53°55' E 009°10'0 0.0
2016-Apr-24 04:31N 53°55' E 009°10'0 0.0
2016-Apr-24 03:28N 53°55' E 009°10'0 0.0
2016-Apr-24 02:31N 53°55' E 009°10'0 0.0
2016-Apr-24 01:28N 53°55' E 009°10'0 0.0
2016-Apr-24 00:31N 53°55' E 009°10'0 0.0
2016-Apr-23 23:28N 53°55' E 009°10'0 0.0
2016-Apr-23 22:31N 53°55' E 009°10'0 0.0
2016-Apr-23 21:19N 53°55' E 009°10'0 0.0
2016-Apr-23 20:31N 53°55' E 009°10'0 0.0
2016-Apr-23 19:31N 53°55' E 009°10'0 0.0
2016-Apr-23 18:31N 53°55' E 009°10'0 0.0
2016-Apr-23 17:31N 53°55' E 009°10'0 0.0
2016-Apr-23 16:31N 53°55' E 009°10'0 0.0
2016-Apr-23 15:28N 53°55' E 009°10'0 0.0
2016-Apr-23 14:31N 53°55' E 009°10'0 0.0
2016-Apr-23 13:31N 53°55' E 009°10'0 0.0
2016-Apr-23 12:31N 53°55' E 009°10'0 0.0
2016-Apr-23 11:28N 53°55' E 009°10'0 0.0
2016-Apr-23 10:31N 53°55' E 009°10'0 0.0
2016-Apr-23 09:22N 53°55' E 009°10'0 0.0
2016-Apr-23 08:31N 53°55' E 009°10'0 0.0
2016-Apr-23 07:31N 53°55' E 009°10'0 0.0
2016-Apr-23 06:31N 53°55' E 009°10'0 0.0
2016-Apr-23 05:31N 53°55' E 009°10'0 0.0
2016-Apr-23 04:31N 53°55' E 009°10'0 0.0
2016-Apr-23 03:31N 53°55' E 009°10'0 0.0
2016-Apr-23 02:31N 53°55' E 009°10'0 0.0
2016-Apr-23 01:31N 53°55' E 009°10'0 0.0
2016-Apr-23 00:25N 53°55' E 009°10'0 0.0
2016-Apr-22 23:31N 53°55' E 009°10'0 0.0
2016-Apr-22 22:25N 53°55' E 009°10'0 0.0
2016-Apr-22 21:31N 53°55' E 009°10'0 0.0
2016-Apr-22 20:31N 53°55' E 009°10'0 0.0
2016-Apr-22 19:31N 53°55' E 009°10'0 0.0
2016-Apr-22 18:31N 53°55' E 009°10'0 0.0
2016-Apr-22 17:31N 53°55' E 009°10'0 0.0
2016-Apr-22 16:31N 53°55' E 009°10'0 0.0
2016-Apr-22 15:31N 53°55' E 009°10'0 0.0
2016-Apr-22 14:25N 53°55' E 009°10'0 0.0
2016-Apr-22 13:31N 53°55' E 009°10'0 0.0
2016-Apr-22 12:25N 53°55' E 009°10'0 0.0
2016-Apr-22 11:34N 53°55' E 009°10'1 1.0
2016-Apr-22 10:33N 53°54' E 009°09'1 0.6
2016-Apr-22 09:33N 53°53' E 009°08'2 1.4
2016-Apr-22 08:27N 53°53' E 009°06'0 0.0
2016-Apr-22 07:31N 53°53' E 009°06'1 1.1
2016-Apr-22 06:33N 53°52' E 009°04'7 7.2
2016-Apr-22 05:33N 53°50' E 008°53'7 6.7
2016-Apr-22 04:34N 53°53' E 008°42'8 7.7
2016-Apr-22 03:29N 53°58' E 008°31'8 9.0
2016-Apr-22 02:32N 53°60' E 008°17'9 9.5
2016-Apr-22 01:33N 54°00' E 008°01'1212.1
2016-Apr-22 00:33N 54°06' E 007°43'1212.2
2016-Apr-21 23:33N 54°09' E 007°23'1313.1
2016-Apr-21 22:33N 54°09' E 007°00'1413.6
2016-Apr-21 21:33N 54°08' E 006°37'1713.6
2016-Apr-21 20:16N 54°07' E 006°08'1013.5
2016-Apr-21 19:33N 54°06' E 005°51'1313.3
2016-Apr-21 18:33N 54°04' E 005°29'1413.1
2016-Apr-21 17:31N 54°02' E 005°06'1212.7
2016-Apr-21 16:33N 54°00' E 004°45'2812.1
2016-Apr-21 14:12N 53°41' E 004°10'1011.6
2016-Apr-21 13:23N 53°35' E 003°57'911.4
2016-Apr-21 12:33N 53°30' E 003°45'5711.2
2016-Apr-21 07:28N 52°35' E 003°16'1112.1
2016-Apr-21 06:33N 52°24' E 003°14'1210.8
2016-Apr-21 05:29N 52°14' E 003°20'1312.8
2016-Apr-21 04:27N 52°07' E 003°39'1011.3
2016-Apr-21 03:33N 52°03' E 003°54'10 9.9
2016-Apr-21 02:33N 51°58' E 004°08'8 7.9
2016-Apr-21 01:33N 51°54' E 004°19'2 1.9
2016-Apr-21 00:31N 51°54' E 004°22'0 0.0
2016-Apr-20 23:31N 51°54' E 004°22'0 0.0
2016-Apr-20 22:25N 51°54' E 004°22'0 0.0
2016-Apr-20 21:31N 51°54' E 004°22'0 0.0
2016-Apr-20 20:28N 51°54' E 004°22'0 0.0
2016-Apr-20 19:31N 51°54' E 004°22'0 0.0
2016-Apr-20 18:22N 51°54' E 004°22'0 0.0
2016-Apr-20 17:28N 51°54' E 004°22'0 0.0
2016-Apr-20 16:31N 51°54' E 004°22'0 0.0
2016-Apr-20 15:31N 51°54' E 004°22'0 0.0
2016-Apr-20 14:25N 51°54' E 004°22'0 0.0
2016-Apr-20 13:34N 51°54' E 004°22'0 0.0
2016-Apr-20 12:31N 51°54' E 004°22'0 0.0
2016-Apr-20 11:28N 51°54' E 004°22'0 0.0
2016-Apr-20 10:04N 51°54' E 004°22'0 0.0
2016-Apr-20 09:27N 51°54' E 004°22'0 0.0
2016-Apr-20 08:34N 51°54' E 004°22'0 0.0
2016-Apr-20 07:31N 51°54' E 004°22'0 0.0
2016-Apr-20 05:31N 51°54' E 004°22'0 0.0
2016-Apr-20 04:31N 51°54' E 004°22'0 0.0
2016-Apr-20 03:30N 51°54' E 004°22'0 0.0
2016-Apr-20 02:30N 51°54' E 004°22'0 0.0
2016-Apr-20 01:33N 51°54' E 004°22'0 0.0
2016-Apr-20 00:25N 51°54' E 004°22'0 0.0
2016-Apr-19 23:30N 51°54' E 004°22'0 0.0
2016-Apr-19 22:33N 51°54' E 004°22'0 0.0
2016-Apr-19 21:31N 51°54' E 004°22'0 0.0
2016-Apr-19 20:33N 51°54' E 004°22'0 0.0
2016-Apr-19 19:27N 51°54' E 004°22'0 0.0
2016-Apr-19 18:33N 51°54' E 004°22'0 0.0
2016-Apr-19 17:33N 51°54' E 004°22'0 0.0
2016-Apr-19 16:30N 51°54' E 004°22'0 0.0
2016-Apr-19 15:24N 51°54' E 004°22'0 0.0
2016-Apr-19 14:27N 51°54' E 004°22'0 0.0
2016-Apr-19 13:30N 51°54' E 004°22'0 0.0
2016-Apr-19 12:27N 51°54' E 004°22'0 0.0
2016-Apr-19 11:25N 51°54' E 004°22'0 0.0
2016-Apr-19 10:18N 51°54' E 004°22'0 0.0
2016-Apr-19 09:30N 51°54' E 004°22'0 0.0
2016-Apr-19 08:33N 51°54' E 004°22'0 0.0
2016-Apr-19 07:33N 51°54' E 004°22'0 0.0
2016-Apr-19 05:30N 51°54' E 004°22'0 0.0
2016-Apr-19 04:33N 51°54' E 004°22'0 0.0
2016-Apr-19 03:33N 51°54' E 004°22'0 0.0
2016-Apr-19 02:33N 51°54' E 004°22'0 0.0
2016-Apr-19 01:33N 51°54' E 004°22'0 0.0
2016-Apr-19 00:30N 51°54' E 004°22'0 0.0
2016-Apr-18 23:33N 51°54' E 004°22'0 0.0
2016-Apr-18 22:33N 51°54' E 004°22'0 0.0
2016-Apr-18 21:30N 51°54' E 004°22'0 0.0
2016-Apr-18 20:30N 51°54' E 004°22'0 0.0
2016-Apr-18 19:30N 51°54' E 004°22'0 0.0
2016-Apr-18 18:27N 51°54' E 004°22'0 0.0
2016-Apr-18 17:27N 51°54' E 004°22'0 0.0
2016-Apr-18 16:27N 51°54' E 004°22'0 0.0
2016-Apr-18 15:33N 51°54' E 004°22'0 0.0
2016-Apr-18 14:30N 51°54' E 004°22'0 0.0
2016-Apr-18 13:33N 51°54' E 004°22'0 0.0
2016-Apr-18 12:30N 51°54' E 004°22'0 0.0
2016-Apr-18 11:30N 51°54' E 004°22'0 0.0
2016-Apr-18 10:30N 51°54' E 004°22'0 0.0
2016-Apr-18 09:33N 51°54' E 004°22'0 0.0
2016-Apr-18 08:30N 51°54' E 004°22'0 0.0
2016-Apr-18 07:30N 51°54' E 004°22'0 0.0
2016-Apr-18 06:24N 51°54' E 004°22'0 0.0
2016-Apr-18 05:27N 51°54' E 004°22'0 0.0
2016-Apr-18 04:33N 51°54' E 004°22'0 0.0
2016-Apr-18 03:30N 51°54' E 004°22'0 0.0
2016-Apr-18 02:33N 51°54' E 004°22'0 0.4
2016-Apr-18 01:33N 51°54' E 004°22'8 8.1
2016-Apr-18 00:33N 51°57' E 004°10'1111.2
2016-Apr-17 23:33N 52°00' E 003°52'9 9.0
2016-Apr-17 22:32N 51°57' E 003°38'2 0.3
2016-Apr-17 17:24N 51°56' E 003°37'  

Dump ship's entire track history